Time;durP1;ratioP1;P1;durP2;ratioP2;P2;SDS_P1;SDS_P2;PMS_P1;PMS_P2;Temp;Humidity;BMP_temperature;BMP_pressure;BME280_temperature;BME280_humidity;BME280_pressure;Samples;Min_cycle;Max_cycle;Signal;HPM_P1;HPM_P2
2021/04/09 00:03:57;;;;;;;6.07;3.20;;;;;;;-0.11;100.00;98680.36;3707086;78;43370;-24
2021/04/09 00:09:04;;;;;;;5.10;3.13;;;;;;;-0.10;100.00;98688.70;3705612;78;44089;-24
2021/04/09 00:14:13;;;;;;;4.37;3.03;;;;;;;-0.11;100.00;98677.72;3706159;78;44090;-23
2021/04/09 00:19:21;;;;;;;7.70;3.40;;;;;;;-0.20;100.00;98664.52;3711307;78;44050;-24
2021/04/09 00:24:27;;;;;;;6.03;3.47;;;;;;;-0.17;100.00;98664.81;3719976;77;43713;-19
2021/04/09 00:29:33;;;;;;;6.13;3.57;;;;;;;-0.16;100.00;98661.22;3721271;78;43411;-19
2021/04/09 00:34:39;;;;;;;8.90;3.67;;;;;;;-0.25;100.00;98656.45;3714792;78;44568;-20
2021/04/09 00:39:44;;;;;;;4.13;3.13;;;;;;;-0.29;100.00;98648.33;3676212;79;44037;-20
2021/04/09 00:44:50;;;;;;;6.53;3.90;;;;;;;-0.28;100.00;98649.55;3675743;79;44637;-20
2021/04/09 00:49:56;;;;;;;6.13;3.70;;;;;;;-0.13;99.28;98649.14;3675119;79;42991;-19
2021/04/09 00:55:04;;;;;;;6.87;3.60;;;;;;;-0.13;99.19;98645.16;3684531;79;44217;-19
2021/04/09 01:00:13;;;;;;;5.13;3.60;;;;;;;-0.13;98.93;98641.19;3677689;79;43677;-22
2021/04/09 01:05:19;;;;;;;5.80;3.70;;;;;;;-0.17;98.51;98640.52;3683184;79;44050;-22
2021/04/09 01:10:25;;;;;;;6.17;3.70;;;;;;;-0.22;99.73;98642.56;3713649;79;44071;-23
2021/04/09 01:15:31;;;;;;;6.10;3.63;;;;;;;-0.29;100.00;98636.41;3747628;79;43340;-19
2021/04/09 01:20:49;;;;;;;9.33;4.17;;;;;;;-0.22;99.02;98629.81;3723544;79;43700;-20
2021/04/09 01:26:23;;;;;;;5.93;3.90;;;;;;;-0.20;98.94;98622.64;3674051;79;44078;-20
2021/04/09 01:31:40;;;;;;;7.30;3.70;;;;;;;-0.22;98.30;98613.92;3666165;79;44055;-20
2021/04/09 01:36:50;;;;;;;7.30;4.63;;;;;;;-0.26;99.03;98607.95;3652467;79;43571;-19
2021/04/09 01:41:58;;;;;;;5.40;3.90;;;;;;;-0.26;98.34;98595.17;3662983;79;43377;-20
2021/04/09 01:47:05;;;;;;;5.27;3.83;;;;;;;-0.26;98.16;98588.10;3654728;79;44800;-20
2021/04/09 01:52:12;;;;;;;7.73;4.67;;;;;;;-0.39;98.95;98587.94;3653066;79;42923;-19
2021/04/09 01:57:21;;;;;;;7.93;4.20;;;;;;;-0.49;100.00;98590.28;3657752;79;44193;-19
2021/04/09 02:02:27;;;;;;;7.43;4.70;;;;;;;-0.56;100.00;98579.64;3653194;79;43665;-20
2021/04/09 02:07:34;;;;;;;8.10;4.70;;;;;;;-0.70;100.00;98571.62;3651831;79;44024;-20
2021/04/09 02:12:43;;;;;;;7.53;4.40;;;;;;;-0.75;100.00;98569.72;3657603;79;44026;-19
2021/04/09 02:17:49;;;;;;;6.60;4.47;;;;;;;-0.79;100.00;98552.69;3654108;79;43431;-20
2021/04/09 02:22:56;;;;;;;9.07;4.70;;;;;;;-0.75;100.00;98552.04;3648238;79;43314;-20
2021/04/09 02:28:04;;;;;;;8.43;4.50;;;;;;;-0.64;100.00;98546.16;3638395;79;44132;-23
2021/04/09 02:33:10;;;;;;;7.37;4.83;;;;;;;-0.51;100.00;98534.38;3639560;79;43689;-23
2021/04/09 02:38:16;;;;;;;6.90;4.63;;;;;;;-0.51;100.00;98520.70;3656798;79;44082;-23
2021/04/09 02:43:22;;;;;;;9.33;5.20;;;;;;;-0.48;100.00;98516.55;3637841;79;44182;-23
2021/04/09 02:48:31;;;;;;;8.53;4.90;;;;;;;-0.51;100.00;98511.89;3638143;79;43498;-20
2021/04/09 02:53:39;;;;;;;8.77;5.03;;;;;;;-0.60;100.00;98507.13;3638771;79;44085;-20
2021/04/09 02:58:47;;;;;;;8.63;4.93;;;;;;;-0.52;100.00;98504.88;3648506;79;43696;-20
2021/04/09 03:03:55;;;;;;;8.83;5.20;;;;;;;-0.57;100.00;98500.34;3646317;79;43710;-20
2021/04/09 03:09:02;;;;;;;6.97;4.70;;;;;;;-0.60;100.00;98491.26;3690404;79;43416;-18
2021/04/09 03:14:08;;;;;;;10.87;5.23;;;;;;;-0.53;100.00;98484.69;3746585;79;44021;-20
2021/04/09 03:19:14;;;;;;;8.67;5.00;;;;;;;-0.31;99.24;98478.95;3670623;79;44090;-19
2021/04/09 03:24:21;;;;;;;8.17;4.53;;;;;;;-0.38;100.00;98475.82;3679865;79;43456;-20
2021/04/09 03:29:27;;;;;;;9.10;5.37;;;;;;;-0.30;99.43;98468.75;3690608;79;44058;-20
2021/04/09 03:34:33;;;;;;;10.33;5.00;;;;;;;-0.31;99.54;98464.39;3669670;79;44545;-20
2021/04/09 03:39:41;;;;;;;6.23;4.80;;;;;;;-0.22;98.18;98464.33;3683143;79;43718;-19
2021/04/09 03:44:47;;;;;;;9.80;5.10;;;;;;;-0.18;98.87;98455.27;3675078;79;43732;-20
2021/04/09 03:49:52;;;;;;;8.47;5.10;;;;;;;-0.25;98.50;98452.59;3691401;79;44024;-20
2021/04/09 03:54:59;;;;;;;8.23;5.37;;;;;;;-0.17;98.28;98450.32;3676300;79;43365;-20
2021/04/09 04:00:08;;;;;;;9.33;5.00;;;;;;;0.04;95.36;98440.22;3668991;79;44074;-19
2021/04/09 04:05:16;;;;;;;8.90;5.43;;;;;;;0.02;95.87;98434.65;3670054;79;44017;-20
2021/04/09 04:10:22;;;;;;;9.03;5.03;;;;;;;-0.01;96.85;98435.70;3672521;79;43714;-20
2021/04/09 04:15:27;;;;;;;7.73;5.20;;;;;;;-0.03;96.91;98427.83;3670247;79;43578;-20
2021/04/09 04:20:34;;;;;;;8.10;5.37;;;;;;;-0.15;98.54;98432.55;3685397;79;44811;-20
2021/04/09 04:25:40;;;;;;;8.67;5.27;;;;;;;-0.11;98.42;98426.13;3664692;79;44424;-20
2021/04/09 04:30:50;;;;;;;8.27;5.27;;;;;;;-0.08;97.55;98424.63;3670055;79;44575;-19
2021/04/09 04:35:55;;;;;;;10.67;5.70;;;;;;;-0.09;98.33;98422.92;3669963;79;43321;-19
2021/04/09 04:41:01;;;;;;;8.20;5.40;;;;;;;-0.14;99.54;98416.20;3666877;79;44032;-19
2021/04/09 04:46:08;;;;;;;9.80;5.20;;;;;;;-0.01;97.13;98411.86;3668370;79;43450;-19
2021/04/09 04:51:14;;;;;;;8.90;5.10;;;;;;;0.01;98.01;98419.70;3668512;79;44068;-19
2021/04/09 04:56:20;;;;;;;8.90;5.23;;;;;;;0.09;97.90;98422.72;3695926;79;43298;-19
2021/04/09 05:01:26;;;;;;;11.47;5.27;;;;;;;0.15;96.44;98411.75;3682203;79;44144;-20
2021/04/09 05:06:32;;;;;;;8.83;5.33;;;;;;;0.15;97.24;98416.56;3668458;79;43725;-20
2021/04/09 05:11:37;;;;;;;8.13;5.20;;;;;;;0.17;98.35;98419.14;3652153;79;44595;-20
2021/04/09 05:16:43;;;;;;;9.83;5.23;;;;;;;0.29;96.55;98414.86;3694437;79;43347;-20
2021/04/09 05:21:49;;;;;;;11.33;6.30;;;;;;;0.44;95.73;98405.94;3684124;79;44843;-19
2021/04/09 05:26:55;;;;;;;7.73;4.93;;;;;;;0.69;94.58;98405.70;3706849;78;43745;-19
2021/04/09 05:32:06;;;;;;;10.37;5.93;;;;;;;0.77;94.71;98407.83;3696922;78;44067;-20
2021/04/09 05:37:12;;;;;;;10.83;5.63;;;;;;;1.00;91.75;98399.70;3709601;78;43384;-19
2021/04/09 05:42:17;;;;;;;8.07;5.03;;;;;;;1.06;92.09;98401.93;3690068;78;44757;-19
2021/04/09 05:47:25;;;;;;;11.17;5.23;;;;;;;1.22;93.56;98407.55;3705435;78;43470;-19
2021/04/09 05:52:33;;;;;;;9.63;5.53;;;;;;;1.26;93.91;98400.23;3692600;78;42996;-19
2021/04/09 05:57:40;;;;;;;10.27;5.23;;;;;;;1.45;91.03;98402.04;3699715;78;43681;-19
2021/04/09 06:02:46;;;;;;;9.10;5.30;;;;;;;1.59;90.51;98398.92;3691458;78;43985;-20
2021/04/09 06:07:52;;;;;;;10.77;6.13;;;;;;;1.69;91.99;98399.99;3705143;78;43388;-20
2021/04/09 06:12:59;;;;;;;8.63;5.73;;;;;;;1.74;90.13;98385.90;3691644;78;43310;-20
2021/04/09 06:18:06;;;;;;;9.80;5.80;;;;;;;1.81;89.89;98375.70;3692060;78;43270;-20
2021/04/09 06:23:12;;;;;;;6.83;5.20;;;;;;;1.96;89.53;98381.28;3722535;77;43325;-20
2021/04/09 06:28:18;;;;;;;9.30;5.77;;;;;;;2.19;87.99;98368.63;3739588;78;43347;-20
2021/04/09 06:33:25;;;;;;;9.33;5.60;;;;;;;2.38;86.51;98365.04;3734373;78;43438;-19
2021/04/09 06:38:31;;;;;;;12.67;7.83;;;;;;;2.45;84.94;98354.81;3738403;78;43677;-21
2021/04/09 06:43:38;;;;;;;11.10;5.93;;;;;;;2.58;85.99;98352.09;3743941;78;43717;-20
2021/04/09 06:48:46;;;;;;;9.10;6.10;;;;;;;2.72;84.19;98342.62;3741660;78;43732;-19
2021/04/09 06:53:54;;;;;;;10.83;6.00;;;;;;;2.88;85.09;98336.17;3739796;78;43455;-19
2021/04/09 06:59:01;;;;;;;10.33;7.07;;;;;;;3.16;85.12;98336.27;3740418;78;44386;-20
2021/04/09 07:04:08;;;;;;;9.43;6.20;;;;;;;3.41;80.42;98341.52;3739780;78;44102;-20
2021/04/09 07:09:16;;;;;;;8.30;5.93;;;;;;;3.61;82.08;98330.16;3735725;78;44509;-20
2021/04/09 07:14:26;;;;;;;9.37;5.80;;;;;;;3.74;81.04;98326.54;3734213;78;43037;-20
2021/04/09 07:19:36;;;;;;;9.70;6.00;;;;;;;3.85;79.61;98324.74;3742958;78;44122;-20
2021/04/09 07:24:42;;;;;;;8.90;5.80;;;;;;;3.99;77.99;98325.47;3742311;78;43412;-20
2021/04/09 07:29:48;;;;;;;9.13;6.10;;;;;;;4.18;78.01;98320.83;3737783;78;43121;-20
2021/04/09 07:34:59;;;;;;;11.53;6.27;;;;;;;4.36;76.38;98322.99;3739896;78;44041;-20
2021/04/09 07:40:08;;;;;;;11.57;6.60;;;;;;;4.55;75.08;98323.68;3736923;78;43674;-20
2021/04/09 07:45:19;;;;;;;9.33;5.93;;;;;;;4.84;79.34;98321.75;3726565;78;44480;-21
2021/04/09 07:50:35;;;;;;;9.50;5.97;;;;;;;4.99;73.93;98315.14;3727102;78;43716;-21
2021/04/09 07:55:41;;;;;;;8.83;5.63;;;;;;;5.15;73.28;98313.36;3738158;78;43071;-21
2021/04/09 08:00:50;;;;;;;8.03;5.57;;;;;;;5.31;70.63;98308.06;3739623;78;44077;-22
2021/04/09 08:06:10;;;;;;;8.77;5.60;;;;;;;5.48;71.73;98303.44;3738213;78;43137;-20
2021/04/09 08:11:26;;;;;;;8.77;5.80;;;;;;;5.64;69.54;98314.16;3738019;78;43424;-20
2021/04/09 08:16:37;;;;;;;12.20;6.00;;;;;;;5.79;69.10;98308.83;3737284;78;75372;-20
2021/04/09 08:21:49;;;;;;;10.00;6.13;;;;;;;6.03;67.37;98309.03;3737145;78;44428;-20
2021/04/09 08:26:55;;;;;;;9.13;5.63;;;;;;;6.24;69.74;98299.56;3738859;78;43713;-21
2021/04/09 08:32:03;;;;;;;8.97;5.70;;;;;;;6.43;63.37;98290.74;3741936;78;43649;-21
2021/04/09 08:37:10;;;;;;;7.80;5.05;;;;;;;6.69;59.78;98287.54;3739343;78;68995;-18
2021/04/09 08:42:18;;;;;;;7.58;5.28;;;;;;;7.06;64.08;98296.21;3741285;78;44574;-21
2021/04/09 08:47:24;;;;;;;7.47;5.17;;;;;;;7.23;55.89;98294.64;3735368;78;44041;-19
2021/04/09 08:52:31;;;;;;;12.47;6.40;;;;;;;7.43;55.42;98289.75;3741457;78;43710;-20
2021/04/09 08:57:38;;;;;;;10.63;7.00;;;;;;;7.55;55.29;98299.31;3740903;78;44500;-22
2021/04/09 09:02:48;;;;;;;10.78;6.22;;;;;;;7.48;56.49;98291.48;3747449;78;43682;-20
2021/04/09 09:08:02;;;;;;;9.85;6.25;;;;;;;7.54;53.01;98290.92;3740645;78;70116;-20
2021/04/09 09:13:43;;;;;;;7.83;5.28;;;;;;;7.60;54.14;98299.70;3741567;78;44066;-20
2021/04/09 09:18:54;;;;;;;9.55;5.40;;;;;;;7.80;53.27;98290.28;3687239;78;43341;-20
2021/04/09 09:24:02;;;;;;;8.93;5.53;;;;;;;7.84;53.65;98299.22;3739583;78;44006;-20
2021/04/09 09:29:17;;;;;;;8.43;5.80;;;;;;;7.90;54.25;98290.22;3751998;77;43686;-20
2021/04/09 09:34:49;;;;;;;7.55;5.33;;;;;;;8.09;53.00;98292.84;3758974;77;44714;-21
2021/04/09 09:39:57;;;;;;;9.25;5.92;;;;;;;8.15;52.33;98264.56;3767212;77;44054;-20
2021/04/09 09:45:07;;;;;;;8.23;5.58;;;;;;;8.20;51.24;98266.28;3758096;77;44080;-20
2021/04/09 09:50:23;;;;;;;7.90;5.72;;;;;;;8.26;51.74;98256.30;3757836;77;43681;-20
2021/04/09 09:55:32;;;;;;;8.53;5.37;;;;;;;8.44;53.11;98261.70;3759212;77;43713;-20
2021/04/09 10:00:39;;;;;;;7.60;5.30;;;;;;;8.31;50.28;98252.66;3756991;77;44452;-20
2021/04/09 10:05:47;;;;;;;9.85;6.03;;;;;;;8.46;51.79;98241.40;3759996;77;43725;-20
2021/04/09 10:10:55;;;;;;;7.08;5.30;;;;;;;8.41;51.64;98245.05;3763438;77;44055;-20
2021/04/09 10:16:13;;;;;;;6.62;4.72;;;;;;;8.59;50.86;98237.88;3759586;77;43141;-20
2021/04/09 10:21:23;;;;;;;8.95;5.17;;;;;;;8.58;50.21;98238.88;3757747;77;43690;-19
2021/04/09 10:26:30;;;;;;;11.45;5.20;;;;;;;8.73;49.55;98230.28;3753017;77;43935;-23
2021/04/09 10:31:36;;;;;;;7.17;4.75;;;;;;;8.86;50.33;98219.99;3739238;78;43658;-23
2021/04/09 10:36:45;;;;;;;11.40;5.35;;;;;;;9.20;50.96;98216.55;3739031;78;43712;-23
2021/04/09 10:41:51;;;;;;;7.47;5.10;;;;;;;9.57;50.72;98199.78;3741775;78;44064;-24
2021/04/09 10:47:00;;;;;;;7.87;5.22;;;;;;;9.66;48.52;98208.22;3746707;78;44027;-24
2021/04/09 10:52:08;;;;;;;6.80;5.05;;;;;;;9.78;50.22;98196.69;3743715;78;43254;-25
2021/04/09 10:57:18;;;;;;;7.40;4.97;;;;;;;9.78;47.40;98193.14;3739936;78;43476;-25
2021/04/09 11:02:25;;;;;;;8.73;4.60;;;;;;;10.02;48.05;98182.98;3739263;78;43721;-24
2021/04/09 11:07:47;;;;;;;7.67;4.75;;;;;;;10.09;48.57;98178.62;3738254;78;43737;-24
2021/04/09 11:12:54;;;;;;;6.45;4.55;;;;;;;10.24;49.62;98172.08;3735051;78;43417;-25
2021/04/09 11:18:01;;;;;;;7.55;4.75;;;;;;;10.40;46.93;98174.50;3733090;78;43334;-24
2021/04/09 11:23:09;;;;;;;7.12;5.00;;;;;;;10.30;47.16;98158.45;3738823;78;44077;-25
2021/04/09 11:28:26;;;;;;;6.28;4.60;;;;;;;10.37;46.13;98155.46;3737768;78;44125;-23
2021/04/09 11:33:41;;;;;;;7.12;4.75;;;;;;;10.63;45.52;98146.42;3740261;78;43988;-20
2021/04/09 11:38:46;;;;;;;8.45;5.03;;;;;;;10.46;46.21;98152.31;3741918;78;43482;-20
2021/04/09 11:43:52;;;;;;;7.00;4.80;;;;;;;10.66;46.89;98151.45;3758394;78;43367;-20
2021/04/09 11:49:02;;;;;;;6.87;4.65;;;;;;;10.72;45.72;98150.79;3741664;78;44062;-24
2021/04/09 11:54:10;;;;;;;5.85;4.87;;;;;;;10.83;44.61;98146.06;3742231;78;43725;-24
2021/04/09 11:59:18;;;;;;;8.28;4.83;;;;;;;11.23;44.46;98133.54;3749331;78;44052;-25
2021/04/09 12:04:35;;;;;;;6.97;4.75;;;;;;;11.35;45.98;98122.69;3754822;78;42954;-24
2021/04/09 12:09:44;;;;;;;7.80;4.80;;;;;;;11.65;45.49;98120.72;3744615;78;43457;-24
2021/04/09 12:14:52;;;;;;;5.90;4.40;;;;;;;11.60;44.11;98119.90;3643895;80;44059;-24
2021/04/09 12:19:58;;;;;;;8.23;5.00;;;;;;;11.93;43.24;98104.91;3750101;78;43396;-25
2021/04/09 12:25:05;;;;;;;6.05;4.05;;;;;;;12.36;44.36;98090.13;3748165;78;43999;-24
2021/04/09 12:30:14;;;;;;;6.58;4.42;;;;;;;12.34;43.97;98090.32;3747361;78;43262;-25
2021/04/09 12:35:21;;;;;;;5.75;4.03;;;;;;;12.59;42.55;98084.19;3743848;78;43722;-24
2021/04/09 12:40:27;;;;;;;5.83;4.40;;;;;;;12.57;41.49;98086.23;3735038;78;44120;-24
2021/04/09 12:45:33;;;;;;;8.43;4.60;;;;;;;12.54;43.32;98085.76;3736345;78;44209;-25
2021/04/09 12:50:39;;;;;;;5.97;4.08;;;;;;;13.01;42.53;98078.36;3739602;78;43498;-25
2021/04/09 12:55:45;;;;;;;5.45;3.87;;;;;;;12.71;39.68;98068.88;3774247;78;44085;-24
2021/04/09 13:00:51;;;;;;;5.85;3.90;;;;;;;12.70;40.04;98071.25;3734286;78;43741;-26
2021/04/09 13:05:57;;;;;;;5.90;4.40;;;;;;;12.80;41.78;98056.95;3731444;78;43511;-25
2021/04/09 13:11:04;;;;;;;5.53;4.20;;;;;;;12.78;40.26;98052.24;3735984;78;43726;-24
2021/04/09 13:16:10;;;;;;;6.30;4.37;;;;;;;12.92;39.99;98063.59;3725558;78;43687;-25
2021/04/09 13:21:16;;;;;;;6.75;4.60;;;;;;;12.91;40.16;98049.74;3647751;80;44448;-25
2021/04/09 13:26:24;;;;;;;6.58;4.70;;;;;;;13.24;39.08;98051.24;3667632;80;44022;-25
2021/04/09 13:31:30;;;;;;;6.95;4.70;;;;;;;12.86;39.79;98053.53;3758081;77;44070;-25
2021/04/09 13:36:36;;;;;;;5.97;4.47;;;;;;;13.07;40.46;98041.13;3772570;77;43385;-24
2021/04/09 13:41:42;;;;;;;9.43;4.78;;;;;;;12.92;38.97;98047.37;3773751;77;44037;-25
2021/04/09 13:46:49;;;;;;;8.10;5.37;;;;;;;12.81;40.38;98046.48;3770193;77;44049;-26
2021/04/09 13:51:56;;;;;;;5.80;4.50;;;;;;;12.69;38.75;98035.79;3768983;77;43398;-24
2021/04/09 13:57:03;;;;;;;9.90;4.80;;;;;;;12.94;40.78;98028.25;3776175;77;43141;-24
2021/04/09 14:02:09;;;;;;;7.37;4.87;;;;;;;12.89;39.57;98027.45;3766460;77;43634;-25
2021/04/09 14:07:16;;;;;;;6.75;4.58;;;;;;;13.05;39.34;98029.66;3770911;77;43472;-25
2021/04/09 14:12:22;;;;;;;8.50;4.70;;;;;;;12.79;39.44;98026.89;3764098;77;44026;-25
2021/04/09 14:17:30;;;;;;;6.40;4.47;;;;;;;12.56;38.61;98016.99;3769385;77;43668;-24
2021/04/09 14:22:37;;;;;;;7.92;5.25;;;;;;;12.58;39.35;98012.25;3772000;77;43677;-24
2021/04/09 14:27:46;;;;;;;7.28;5.05;;;;;;;12.34;38.31;98017.39;3769640;77;43042;-24
2021/04/09 14:32:52;;;;;;;8.63;5.17;;;;;;;12.40;38.61;98007.71;3770388;77;43433;-24
2021/04/09 14:37:57;;;;;;;8.85;5.08;;;;;;;12.59;40.11;98002.27;3765715;77;44118;-24
2021/04/09 14:43:03;;;;;;;9.85;5.15;;;;;;;12.66;39.69;97990.20;3776806;77;43314;-25
2021/04/09 14:48:10;;;;;;;10.82;5.50;;;;;;;12.72;40.90;97993.00;3772374;77;44095;-25
2021/04/09 14:59:05;;;;;;;9.05;5.60;;;;;;;13.01;41.00;98002.66;3771485;77;44209;-25
2021/04/09 15:04:12;;;;;;;7.40;5.25;;;;;;;13.25;40.68;97992.06;3761730;77;43582;-24
2021/04/09 15:09:18;;;;;;;7.17;5.10;;;;;;;13.14;38.40;97994.72;3775989;77;44057;-25
2021/04/09 15:14:24;;;;;;;7.58;5.10;;;;;;;13.06;39.63;97994.83;3772611;77;43040;-25
2021/04/09 15:19:32;;;;;;;8.25;4.83;;;;;;;12.92;39.73;97983.83;3768212;77;44551;-26
2021/04/09 15:24:39;;;;;;;8.00;4.83;;;;;;;12.77;38.16;97981.63;3774578;77;44900;-24
2021/04/09 15:29:45;;;;;;;7.45;4.80;;;;;;;12.84;39.16;97974.48;3769729;77;44080;-25
2021/04/09 15:34:51;;;;;;;7.05;5.20;;;;;;;13.36;39.22;97976.69;3765443;77;44037;-25
2021/04/09 15:39:59;;;;;;;7.75;5.33;;;;;;;13.14;40.58;97974.44;3779686;77;44057;-25
2021/04/09 15:45:06;;;;;;;7.12;4.70;;;;;;;12.93;39.43;97970.64;3777555;77;44498;-25
2021/04/09 15:50:14;;;;;;;7.15;4.70;;;;;;;13.04;40.02;97967.13;3768684;77;43705;-25
2021/04/09 15:55:20;;;;;;;8.78;5.65;;;;;;;12.95;40.30;97965.89;3769852;77;43713;-25
2021/04/09 16:00:27;;;;;;;8.08;5.00;;;;;;;13.07;40.70;97964.88;3774887;77;44113;-24
2021/04/09 16:05:35;;;;;;;6.83;5.20;;;;;;;13.30;41.05;97965.26;3767033;77;43397;-24
2021/04/09 16:10:41;;;;;;;11.15;6.05;;;;;;;13.82;39.84;97953.86;3769709;77;44017;-25
2021/04/09 16:15:47;;;;;;;10.35;5.97;;;;;;;13.64;39.65;97947.55;3765085;77;44053;-24
2021/04/09 16:20:53;;;;;;;9.73;5.55;;;;;;;13.45;39.86;97948.19;3767644;77;44540;-25
2021/04/09 16:25:59;;;;;;;18.73;11.05;;;;;;;13.24;39.98;97956.03;3763356;77;43681;-24
2021/04/09 16:31:05;;;;;;;7.12;5.20;;;;;;;13.25;40.59;97951.48;3765122;77;44060;-25
2021/04/09 16:36:12;;;;;;;8.38;5.35;;;;;;;13.08;42.25;97953.57;3761863;77;44044;-25
2021/04/09 16:41:18;;;;;;;9.60;4.90;;;;;;;13.11;40.64;97950.49;3771966;77;43373;-25
2021/04/09 16:46:24;;;;;;;7.62;4.70;;;;;;;13.06;41.75;97949.69;3764582;77;43672;-25
2021/04/09 16:51:30;;;;;;;7.08;5.08;;;;;;;12.76;40.56;97954.27;3765111;77;44018;-25
2021/04/09 16:56:36;;;;;;;6.12;4.58;;;;;;;12.73;40.90;97951.97;3766794;77;43310;-25
2021/04/09 17:01:42;;;;;;;6.40;4.78;;;;;;;12.61;42.51;97951.09;3760666;77;43497;-25
2021/04/09 17:06:49;;;;;;;6.75;5.15;;;;;;;12.33;43.79;97942.25;3777512;77;43677;-25
2021/04/09 17:11:56;;;;;;;8.43;4.65;;;;;;;12.02;44.29;97946.42;3773337;77;43412;-25
2021/04/09 17:17:03;;;;;;;6.17;4.67;;;;;;;11.91;43.97;97955.78;3765512;77;43413;-25
2021/04/09 17:22:09;;;;;;;8.25;4.97;;;;;;;11.81;45.06;97945.74;3784275;77;43404;-25
2021/04/09 17:27:15;;;;;;;8.08;4.95;;;;;;;11.70;45.53;97947.82;3770240;77;44220;-25
2021/04/09 17:32:22;;;;;;;8.85;5.22;;;;;;;11.64;46.10;97940.46;3765665;77;44068;-25
2021/04/09 17:37:29;;;;;;;10.68;6.65;;;;;;;11.58;45.64;97942.55;3773767;77;44089;-24
2021/04/09 17:42:36;;;;;;;12.78;6.67;;;;;;;11.53;46.09;97932.27;3775551;77;44021;-25
2021/04/09 17:47:42;;;;;;;11.12;5.60;;;;;;;11.39;46.24;97942.50;3769174;77;44073;-25
2021/04/09 17:52:49;;;;;;;8.00;5.75;;;;;;;11.26;46.64;97945.76;3767578;77;43300;-24
2021/04/09 17:57:54;;;;;;;11.25;7.95;;;;;;;11.21;46.68;97946.30;3767488;77;43362;-24
2021/04/09 18:03:01;;;;;;;9.15;5.45;;;;;;;11.08;46.90;97942.84;3767471;77;44104;-24
2021/04/09 18:08:08;;;;;;;10.85;5.80;;;;;;;10.66;47.28;97960.17;3766587;77;43302;-24
2021/04/09 18:13:13;;;;;;;8.03;5.62;;;;;;;10.46;45.26;97967.83;3764794;77;44077;-24
2021/04/09 18:18:20;;;;;;;10.18;6.20;;;;;;;10.22;47.96;97976.73;3773312;77;44113;-24
2021/04/09 18:23:27;;;;;;;9.28;5.30;;;;;;;9.97;47.86;97974.06;3778366;77;43332;-24
2021/04/09 18:28:33;;;;;;;10.48;5.60;;;;;;;10.00;47.21;97977.77;3760921;77;43438;-24
2021/04/09 18:33:39;;;;;;;15.65;5.78;;;;;;;10.19;45.13;97986.00;3744938;77;43325;-24
2021/04/09 18:38:45;;;;;;;10.08;6.00;;;;;;;9.97;46.08;97995.10;3733209;78;43373;-25
2021/04/09 18:43:51;;;;;;;9.75;6.22;;;;;;;9.90;46.62;98003.48;3743237;78;43655;-24
2021/04/09 18:48:58;;;;;;;8.45;5.42;;;;;;;9.80;46.67;98003.67;3735281;78;44029;-23
2021/04/09 18:54:05;;;;;;;8.33;5.78;;;;;;;9.68;47.88;98006.34;3736795;78;43751;-24
2021/04/09 18:59:11;;;;;;;9.35;5.70;;;;;;;9.52;48.67;98014.70;3739446;78;44014;-23
2021/04/09 19:04:17;;;;;;;10.40;5.70;;;;;;;9.40;48.83;98018.71;3731518;78;43731;-23
2021/04/09 19:09:24;;;;;;;15.80;9.13;;;;;;;9.26;50.05;98020.19;3735456;78;44098;-23
2021/04/09 19:14:31;;;;;;;10.60;7.63;;;;;;;9.15;51.63;98024.52;3746887;78;75204;-23
2021/04/09 19:19:38;;;;;;;11.57;7.72;;;;;;;8.84;53.82;98019.17;3745340;78;43477;-23
2021/04/09 19:24:44;;;;;;;12.23;7.65;;;;;;;8.39;56.28;98021.05;3758051;78;44172;-24
2021/04/09 19:29:50;;;;;;;13.03;8.30;;;;;;;8.24;56.91;98015.89;3751638;78;44414;-25
2021/04/09 19:34:56;;;;;;;12.78;7.75;;;;;;;8.24;56.86;98019.44;3746328;78;44123;-24
2021/04/09 19:40:02;;;;;;;13.30;7.20;;;;;;;8.29;56.60;98022.99;3755196;78;43722;-24
2021/04/09 19:45:13;;;;;;;9.65;6.42;;;;;;;8.27;56.43;98020.96;3753692;78;43702;-24
2021/04/09 19:50:19;;;;;;;10.53;6.30;;;;;;;8.26;56.68;98017.45;3748947;78;43542;-25
2021/04/09 19:55:26;;;;;;;10.82;7.03;;;;;;;8.22;54.18;98015.23;3743365;78;44070;-24
2021/04/09 20:00:32;;;;;;;10.80;6.20;;;;;;;8.24;54.52;98015.89;3755189;78;43341;-22
2021/04/09 20:05:38;;;;;;;10.00;7.00;;;;;;;8.24;53.73;98010.05;3747882;78;43466;-23
2021/04/09 20:10:44;;;;;;;11.33;6.70;;;;;;;8.23;55.07;98000.31;3749220;78;44223;-25
2021/04/09 20:15:50;;;;;;;10.70;6.47;;;;;;;8.20;55.62;98004.64;3747949;78;70290;-24
2021/04/09 20:20:56;;;;;;;9.70;6.30;;;;;;;8.11;56.63;98004.24;3755105;78;43352;-24
2021/04/09 20:26:02;;;;;;;10.90;6.28;;;;;;;7.95;57.80;98000.42;3749478;78;44062;-24
2021/04/09 20:31:09;;;;;;;10.60;6.70;;;;;;;7.75;57.71;98005.13;3747712;78;43646;-24
2021/04/09 20:36:16;;;;;;;10.63;6.50;;;;;;;7.77;57.84;97996.41;3758425;77;43718;-24
2021/04/09 20:41:22;;;;;;;10.30;6.10;;;;;;;7.77;57.17;97991.56;3767797;77;44032;-24
2021/04/09 20:46:29;;;;;;;9.73;5.80;;;;;;;7.78;56.25;97991.91;3771967;77;69180;-24
2021/04/09 20:51:35;;;;;;;9.55;5.95;;;;;;;7.84;55.78;97989.45;3777039;77;42658;-24
2021/04/09 20:56:42;;;;;;;9.20;5.70;;;;;;;7.80;56.14;97973.83;3765207;77;43539;-25
2021/04/09 21:01:48;;;;;;;9.25;5.90;;;;;;;7.80;55.91;97976.51;3772231;77;43936;-24
2021/04/09 21:06:54;;;;;;;14.60;7.03;;;;;;;7.85;55.57;97974.19;3767694;77;43694;-24
2021/04/09 21:12:00;;;;;;;10.48;6.58;;;;;;;7.73;57.02;97975.42;3769958;77;44031;-24
2021/04/09 21:17:06;;;;;;;9.18;6.12;;;;;;;7.64;58.57;97975.88;3773835;77;69268;-24
2021/04/09 21:22:13;;;;;;;11.83;6.25;;;;;;;7.41;61.71;97976.30;3773641;77;75682;-27
2021/04/09 21:27:18;;;;;;;12.20;7.20;;;;;;;7.25;62.87;97984.53;3767472;77;44105;-27
2021/04/09 21:32:24;;;;;;;14.00;6.87;;;;;;;7.04;61.93;97974.08;3767898;77;76271;-27
2021/04/09 21:37:30;;;;;;;12.40;6.97;;;;;;;7.08;62.94;97978.16;3787664;77;44590;-28
2021/04/09 21:42:37;;;;;;;12.57;7.07;;;;;;;7.07;62.48;97970.25;3793334;77;43478;-28
2021/04/09 21:47:43;;;;;;;10.90;6.40;;;;;;;7.14;61.64;97971.35;3784280;77;43420;-28
2021/04/09 21:52:49;;;;;;;10.23;5.90;;;;;;;7.23;60.22;97966.94;3791201;77;43639;-27
2021/04/09 21:57:55;;;;;;;9.80;6.17;;;;;;;7.35;58.93;97967.03;3782911;77;44124;-26
2021/04/09 22:03:01;;;;;;;9.60;6.25;;;;;;;7.49;58.83;97967.50;3795692;77;43677;-27
2021/04/09 22:08:08;;;;;;;9.28;5.97;;;;;;;7.44;59.46;97955.90;3795649;77;43709;-27
2021/04/09 22:13:13;;;;;;;9.45;5.60;;;;;;;7.45;59.37;97964.80;3794529;77;44536;-26
2021/04/09 22:18:20;;;;;;;9.88;6.08;;;;;;;7.42;59.88;97955.20;3784363;77;71559;-27
2021/04/09 22:23:26;;;;;;;9.13;5.85;;;;;;;7.40;60.45;97946.50;3803454;77;44814;-26
2021/04/09 22:28:35;;;;;;;9.25;5.50;;;;;;;7.36;59.94;97943.77;3804544;77;43685;-26
2021/04/09 22:33:42;;;;;;;7.83;5.00;;;;;;;7.39;59.84;97942.96;3784181;77;44429;-26
2021/04/09 22:38:48;;;;;;;9.87;5.20;;;;;;;7.39;59.49;97940.28;3792158;77;43282;-25
2021/04/09 22:43:53;;;;;;;10.33;5.43;;;;;;;7.35;59.50;97934.05;3797748;77;43720;-25
2021/04/09 22:48:59;;;;;;;8.45;5.10;;;;;;;7.32;59.49;97933.86;3779709;77;43714;-25
2021/04/09 22:54:07;;;;;;;7.75;5.00;;;;;;;7.32;59.71;97934.34;3783978;77;69466;-25
2021/04/09 22:59:16;;;;;;;9.03;4.80;;;;;;;7.28;59.52;97927.63;3791325;77;44050;-26
2021/04/09 23:04:22;;;;;;;6.35;4.78;;;;;;;7.19;60.76;97921.33;3800093;77;41854;-26
2021/04/09 23:09:28;;;;;;;9.95;5.10;;;;;;;7.12;61.37;97918.90;3793328;77;43751;-25
2021/04/09 23:14:34;;;;;;;7.62;4.67;;;;;;;7.14;60.74;97923.13;3791784;77;69536;-25
2021/04/09 23:19:41;;;;;;;8.03;5.03;;;;;;;7.18;60.16;97915.12;3787787;77;43725;-25
2021/04/09 23:24:47;;;;;;;9.00;5.37;;;;;;;7.30;59.21;97915.75;3788093;77;43708;-25
2021/04/09 23:29:53;;;;;;;8.70;4.70;;;;;;;7.33;58.70;97915.45;3800774;77;43097;-25
2021/04/09 23:34:58;;;;;;;7.55;4.55;;;;;;;7.43;58.40;97911.84;3765663;77;43371;-26
2021/04/09 23:40:06;;;;;;;8.08;4.67;;;;;;;7.51;56.25;97903.86;3683344;80;44569;-25
2021/04/09 23:45:13;;;;;;;7.33;4.73;;;;;;;7.66;55.59;97904.14;3703667;80;43348;-25
2021/04/09 23:50:19;;;;;;;6.30;4.37;;;;;;;7.74;55.17;97908.73;3696234;80;43731;-25
2021/04/09 23:55:24;;;;;;;7.10;4.83;;;;;;;7.77;56.12;97911.11;3680855;80;44050;-27
